sensor_id;sensor_type;location;lat;lon;timestamp;P1;durP1;ratioP1;P2;durP2;ratioP2
57301;SDS011;43149;50.974;18.224;2023-12-04T00:02:04;32.90;;;13.40;;
57301;SDS011;43149;50.974;18.224;2023-12-04T00:11:49;33.20;;;20.30;;
57301;SDS011;43149;50.974;18.224;2023-12-04T00:21:32;40.10;;;23.50;;
57301;SDS011;43149;50.974;18.224;2023-12-04T00:31:15;45.60;;;25.80;;
57301;SDS011;43149;50.974;18.224;2023-12-04T00:40:59;44.90;;;24.50;;
57301;SDS011;43149;50.974;18.224;2023-12-04T00:50:41;21.10;;;11.20;;
57301;SDS011;43149;50.974;18.224;2023-12-04T01:00:28;40.00;;;20.80;;
57301;SDS011;43149;50.974;18.224;2023-12-04T01:10:11;44.30;;;24.00;;
57301;SDS011;43149;50.974;18.224;2023-12-04T01:19:54;68.80;;;32.40;;
57301;SDS011;43149;50.974;18.224;2023-12-04T01:29:38;43.70;;;22.70;;
57301;SDS011;43149;50.974;18.224;2023-12-04T01:39:21;58.30;;;26.50;;
57301;SDS011;43149;50.974;18.224;2023-12-04T01:49:05;50.80;;;27.70;;
57301;SDS011;43149;50.974;18.224;2023-12-04T01:58:49;62.70;;;26.40;;
57301;SDS011;43149;50.974;18.224;2023-12-04T02:08:33;62.00;;;25.70;;
57301;SDS011;43149;50.974;18.224;2023-12-04T02:18:18;70.90;;;35.00;;
57301;SDS011;43149;50.974;18.224;2023-12-04T02:28:05;63.90;;;27.50;;
57301;SDS011;43149;50.974;18.224;2023-12-04T02:37:50;92.20;;;37.80;;
57301;SDS011;43149;50.974;18.224;2023-12-04T02:47:33;103.20;;;44.40;;
57301;SDS011;43149;50.974;18.224;2023-12-04T02:57:17;100.60;;;40.70;;
57301;SDS011;43149;50.974;18.224;2023-12-04T03:07:00;93.00;;;39.90;;
57301;SDS011;43149;50.974;18.224;2023-12-04T03:16:42;85.60;;;38.70;;
57301;SDS011;43149;50.974;18.224;2023-12-04T03:26:26;83.90;;;31.80;;
57301;SDS011;43149;50.974;18.224;2023-12-04T03:36:09;90.70;;;34.20;;
57301;SDS011;43149;50.974;18.224;2023-12-04T03:45:52;93.30;;;37.10;;
57301;SDS011;43149;50.974;18.224;2023-12-04T03:55:35;93.70;;;31.40;;
57301;SDS011;43149;50.974;18.224;2023-12-04T04:05:20;109.90;;;33.80;;
57301;SDS011;43149;50.974;18.224;2023-12-04T04:15:03;157.10;;;49.60;;
57301;SDS011;43149;50.974;18.224;2023-12-04T04:24:47;108.40;;;41.10;;
57301;SDS011;43149;50.974;18.224;2023-12-04T04:34:31;63.00;;;29.20;;
57301;SDS011;43149;50.974;18.224;2023-12-04T04:44:13;74.60;;;32.10;;
57301;SDS011;43149;50.974;18.224;2023-12-04T04:54:02;55.90;;;29.70;;
57301;SDS011;43149;50.974;18.224;2023-12-04T05:03:46;64.80;;;30.30;;
57301;SDS011;43149;50.974;18.224;2023-12-04T05:13:30;72.20;;;32.30;;
57301;SDS011;43149;50.974;18.224;2023-12-04T05:23:12;54.80;;;30.30;;
57301;SDS011;43149;50.974;18.224;2023-12-04T05:32:56;60.60;;;28.90;;
57301;SDS011;43149;50.974;18.224;2023-12-04T05:42:39;36.50;;;23.10;;
57301;SDS011;43149;50.974;18.224;2023-12-04T05:52:24;79.60;;;34.40;;
57301;SDS011;43149;50.974;18.224;2023-12-04T06:02:07;100.70;;;43.30;;
57301;SDS011;43149;50.974;18.224;2023-12-04T06:11:51;102.60;;;41.40;;
57301;SDS011;43149;50.974;18.224;2023-12-04T06:21:34;76.40;;;32.40;;
57301;SDS011;43149;50.974;18.224;2023-12-04T06:31:18;86.40;;;40.00;;
57301;SDS011;43149;50.974;18.224;2023-12-04T06:41:03;68.60;;;28.10;;
57301;SDS011;43149;50.974;18.224;2023-12-04T06:50:50;101.50;;;44.50;;
57301;SDS011;43149;50.974;18.224;2023-12-04T07:00:33;96.60;;;38.20;;
57301;SDS011;43149;50.974;18.224;2023-12-04T07:10:16;91.00;;;45.70;;
57301;SDS011;43149;50.974;18.224;2023-12-04T07:20:00;94.20;;;40.60;;
57301;SDS011;43149;50.974;18.224;2023-12-04T07:29:43;59.00;;;33.20;;
57301;SDS011;43149;50.974;18.224;2023-12-04T07:39:28;69.00;;;31.80;;
57301;SDS011;43149;50.974;18.224;2023-12-04T07:49:12;68.50;;;38.50;;
57301;SDS011;43149;50.974;18.224;2023-12-04T07:58:55;82.50;;;39.20;;
57301;SDS011;43149;50.974;18.224;2023-12-04T08:08:41;89.00;;;42.90;;
57301;SDS011;43149;50.974;18.224;2023-12-04T08:18:27;66.60;;;31.80;;
57301;SDS011;43149;50.974;18.224;2023-12-04T08:28:11;96.10;;;44.90;;
57301;SDS011;43149;50.974;18.224;2023-12-04T08:37:55;102.30;;;47.20;;
57301;SDS011;43149;50.974;18.224;2023-12-04T08:47:39;74.50;;;30.00;;
57301;SDS011;43149;50.974;18.224;2023-12-04T08:57:22;84.90;;;27.30;;
57301;SDS011;43149;50.974;18.224;2023-12-04T09:07:05;57.50;;;25.00;;
57301;SDS011;43149;50.974;18.224;2023-12-04T09:16:49;61.80;;;26.30;;
57301;SDS011;43149;50.974;18.224;2023-12-04T09:26:34;72.50;;;29.70;;
57301;SDS011;43149;50.974;18.224;2023-12-04T09:36:16;63.00;;;25.00;;
57301;SDS011;43149;50.974;18.224;2023-12-04T09:46:00;49.10;;;21.70;;
57301;SDS011;43149;50.974;18.224;2023-12-04T09:55:47;71.70;;;29.50;;
57301;SDS011;43149;50.974;18.224;2023-12-04T10:05:31;61.10;;;27.10;;
57301;SDS011;43149;50.974;18.224;2023-12-04T10:15:13;58.20;;;24.30;;
57301;SDS011;43149;50.974;18.224;2023-12-04T10:25:29;62.80;;;19.60;;
57301;SDS011;43149;50.974;18.224;2023-12-04T10:35:34;54.10;;;24.40;;
57301;SDS011;43149;50.974;18.224;2023-12-04T10:45:34;50.10;;;18.60;;
57301;SDS011;43149;50.974;18.224;2023-12-04T10:55:30;52.00;;;23.10;;
57301;SDS011;43149;50.974;18.224;2023-12-04T11:05:14;38.80;;;19.10;;
57301;SDS011;43149;50.974;18.224;2023-12-04T11:15:17;44.30;;;14.20;;
57301;SDS011;43149;50.974;18.224;2023-12-04T11:25:06;44.00;;;19.60;;
57301;SDS011;43149;50.974;18.224;2023-12-04T11:34:56;61.40;;;24.70;;
57301;SDS011;43149;50.974;18.224;2023-12-04T11:44:49;40.80;;;18.40;;
57301;SDS011;43149;50.974;18.224;2023-12-04T12:05:00;43.50;;;20.20;;
57301;SDS011;43149;50.974;18.224;2023-12-04T12:14:45;47.70;;;23.90;;
57301;SDS011;43149;50.974;18.224;2023-12-04T12:24:29;50.30;;;21.00;;
57301;SDS011;43149;50.974;18.224;2023-12-04T12:29:20;63.50;;;34.40;;
57301;SDS011;43149;50.974;18.224;2023-12-04T12:39:03;48.20;;;21.10;;
57301;SDS011;43149;50.974;18.224;2023-12-04T12:48:48;55.20;;;21.30;;
57301;SDS011;43149;50.974;18.224;2023-12-04T12:58:33;88.50;;;19.50;;
57301;SDS011;43149;50.974;18.224;2023-12-04T13:08:16;45.70;;;18.60;;
57301;SDS011;43149;50.974;18.224;2023-12-04T13:18:06;12.60;;;7.60;;
57301;SDS011;43149;50.974;18.224;2023-12-04T13:27:51;42.20;;;18.30;;
57301;SDS011;43149;50.974;18.224;2023-12-04T13:37:34;36.90;;;17.70;;
57301;SDS011;43149;50.974;18.224;2023-12-04T13:47:48;59.80;;;17.60;;
57301;SDS011;43149;50.974;18.224;2023-12-04T13:57:42;34.00;;;19.90;;
57301;SDS011;43149;50.974;18.224;2023-12-04T14:07:45;52.60;;;23.60;;
57301;SDS011;43149;50.974;18.224;2023-12-04T14:17:34;42.20;;;22.20;;
57301;SDS011;43149;50.974;18.224;2023-12-04T14:27:21;56.40;;;23.40;;
57301;SDS011;43149;50.974;18.224;2023-12-04T14:32:13;67.90;;;37.10;;
57301;SDS011;43149;50.974;18.224;2023-12-04T14:41:55;41.70;;;22.60;;
57301;SDS011;43149;50.974;18.224;2023-12-04T14:51:41;46.90;;;24.60;;
57301;SDS011;43149;50.974;18.224;2023-12-04T15:02:07;73.80;;;36.40;;
57301;SDS011;43149;50.974;18.224;2023-12-04T15:12:14;55.50;;;28.70;;
57301;SDS011;43149;50.974;18.224;2023-12-04T15:22:34;92.70;;;42.00;;
57301;SDS011;43149;50.974;18.224;2023-12-04T15:32:20;68.50;;;35.50;;
57301;SDS011;43149;50.974;18.224;2023-12-04T15:42:05;79.40;;;40.70;;
57301;SDS011;43149;50.974;18.224;2023-12-04T15:51:50;92.90;;;40.90;;
57301;SDS011;43149;50.974;18.224;2023-12-04T16:01:33;72.70;;;41.80;;
57301;SDS011;43149;50.974;18.224;2023-12-04T16:11:16;72.60;;;39.00;;
57301;SDS011;43149;50.974;18.224;2023-12-04T16:21:01;88.90;;;37.80;;
57301;SDS011;43149;50.974;18.224;2023-12-04T16:30:44;78.30;;;38.50;;
57301;SDS011;43149;50.974;18.224;2023-12-04T16:40:28;80.20;;;36.10;;
57301;SDS011;43149;50.974;18.224;2023-12-04T16:50:12;88.10;;;42.00;;
57301;SDS011;43149;50.974;18.224;2023-12-04T16:59:56;80.00;;;37.50;;
57301;SDS011;43149;50.974;18.224;2023-12-04T17:09:40;75.50;;;40.80;;
57301;SDS011;43149;50.974;18.224;2023-12-04T17:19:23;99.90;;;38.40;;
57301;SDS011;43149;50.974;18.224;2023-12-04T17:29:05;85.10;;;41.30;;
57301;SDS011;43149;50.974;18.224;2023-12-04T17:38:50;70.80;;;36.40;;
57301;SDS011;43149;50.974;18.224;2023-12-04T17:48:36;67.70;;;35.40;;
57301;SDS011;43149;50.974;18.224;2023-12-04T17:58:21;76.90;;;37.70;;
57301;SDS011;43149;50.974;18.224;2023-12-04T18:15:22;83.70;;;39.80;;
57301;SDS011;43149;50.974;18.224;2023-12-04T18:25:07;89.80;;;37.70;;
57301;SDS011;43149;50.974;18.224;2023-12-04T18:34:52;58.20;;;31.50;;
57301;SDS011;43149;50.974;18.224;2023-12-04T18:44:43;67.80;;;35.80;;
57301;SDS011;43149;50.974;18.224;2023-12-04T18:54:28;63.50;;;33.00;;
57301;SDS011;43149;50.974;18.224;2023-12-04T19:04:11;77.90;;;34.10;;
57301;SDS011;43149;50.974;18.224;2023-12-04T19:13:57;57.20;;;27.50;;
57301;SDS011;43149;50.974;18.224;2023-12-04T19:23:42;67.30;;;27.90;;
57301;SDS011;43149;50.974;18.224;2023-12-04T19:33:24;69.30;;;29.80;;
57301;SDS011;43149;50.974;18.224;2023-12-04T19:43:14;56.30;;;31.40;;
57301;SDS011;43149;50.974;18.224;2023-12-04T19:52:58;68.50;;;30.40;;
57301;SDS011;43149;50.974;18.224;2023-12-04T20:02:41;47.40;;;24.90;;
57301;SDS011;43149;50.974;18.224;2023-12-04T20:12:31;25.50;;;9.10;;
57301;SDS011;43149;50.974;18.224;2023-12-04T20:22:15;63.30;;;29.60;;
57301;SDS011;43149;50.974;18.224;2023-12-04T20:32:19;58.90;;;26.50;;
57301;SDS011;43149;50.974;18.224;2023-12-04T20:42:04;71.00;;;31.20;;
57301;SDS011;43149;50.974;18.224;2023-12-04T20:51:49;43.30;;;24.20;;
57301;SDS011;43149;50.974;18.224;2023-12-04T21:01:35;70.70;;;29.90;;
57301;SDS011;43149;50.974;18.224;2023-12-04T21:11:18;52.70;;;27.70;;
57301;SDS011;43149;50.974;18.224;2023-12-04T21:28:19;57.50;;;26.70;;
57301;SDS011;43149;50.974;18.224;2023-12-04T21:38:03;59.30;;;28.30;;
57301;SDS011;43149;50.974;18.224;2023-12-04T21:47:47;49.00;;;25.30;;
57301;SDS011;43149;50.974;18.224;2023-12-04T21:57:30;24.90;;;12.30;;
57301;SDS011;43149;50.974;18.224;2023-12-04T22:07:13;54.10;;;27.60;;
57301;SDS011;43149;50.974;18.224;2023-12-04T22:16:59;31.10;;;11.10;;
57301;SDS011;43149;50.974;18.224;2023-12-04T22:26:42;74.20;;;27.80;;
57301;SDS011;43149;50.974;18.224;2023-12-04T22:36:26;64.20;;;29.40;;
57301;SDS011;43149;50.974;18.224;2023-12-04T22:46:09;64.00;;;29.10;;
57301;SDS011;43149;50.974;18.224;2023-12-04T22:55:55;87.30;;;32.20;;
57301;SDS011;43149;50.974;18.224;2023-12-04T23:08:04;87.80;;;42.00;;
57301;SDS011;43149;50.974;18.224;2023-12-04T23:17:50;56.60;;;27.00;;
57301;SDS011;43149;50.974;18.224;2023-12-04T23:29:58;81.70;;;41.40;;
57301;SDS011;43149;50.974;18.224;2023-12-04T23:39:41;46.20;;;25.50;;
57301;SDS011;43149;50.974;18.224;2023-12-04T23:49:25;59.90;;;25.60;;
57301;SDS011;43149;50.974;18.224;2023-12-04T23:59:07;71.30;;;33.40;;
